sensor_id;sensor_type;location;lat;lon;timestamp;P1;durP1;ratioP1;P2;durP2;ratioP2
50319;SDS011;36226;53.464;9.852;2022-12-07T00:00:15;25.77;;;13.18;;
50319;SDS011;36226;53.464;9.852;2022-12-07T00:02:41;27.58;;;13.93;;
50319;SDS011;36226;53.464;9.852;2022-12-07T00:05:06;29.77;;;12.80;;
50319;SDS011;36226;53.464;9.852;2022-12-07T00:07:32;24.10;;;12.82;;
50319;SDS011;36226;53.464;9.852;2022-12-07T00:09:57;30.70;;;13.73;;
50319;SDS011;36226;53.464;9.852;2022-12-07T00:12:23;25.30;;;13.90;;
50319;SDS011;36226;53.464;9.852;2022-12-07T01:54:00;17.58;;;7.50;;
50319;SDS011;36226;53.464;9.852;2022-12-07T01:56:26;19.02;;;8.43;;
50319;SDS011;36226;53.464;9.852;2022-12-07T01:58:52;18.27;;;8.55;;
50319;SDS011;36226;53.464;9.852;2022-12-07T02:01:20;20.73;;;8.27;;
50319;SDS011;36226;53.464;9.852;2022-12-07T02:03:48;20.00;;;8.73;;
50319;SDS011;36226;53.464;9.852;2022-12-07T02:06:15;16.13;;;7.82;;
50319;SDS011;36226;53.464;9.852;2022-12-07T02:08:42;16.92;;;8.60;;
50319;SDS011;36226;53.464;9.852;2022-12-07T02:11:08;15.73;;;7.60;;
50319;SDS011;36226;53.464;9.852;2022-12-07T02:13:35;17.33;;;7.45;;
50319;SDS011;36226;53.464;9.852;2022-12-07T02:30:02;16.58;;;6.10;;
50319;SDS011;36226;53.464;9.852;2022-12-07T02:35:11;16.55;;;5.35;;
50319;SDS011;36226;53.464;9.852;2022-12-07T02:37:43;9.82;;;4.90;;
50319;SDS011;36226;53.464;9.852;2022-12-07T02:40:44;11.95;;;4.90;;
50319;SDS011;36226;53.464;9.852;2022-12-07T02:43:15;9.77;;;4.25;;
50319;SDS011;36226;53.464;9.852;2022-12-07T02:45:43;12.52;;;4.13;;
50319;SDS011;36226;53.464;9.852;2022-12-07T02:48:10;8.20;;;3.90;;
50319;SDS011;36226;53.464;9.852;2022-12-07T02:50:37;9.48;;;4.30;;
50319;SDS011;36226;53.464;9.852;2022-12-07T02:53:02;10.65;;;3.80;;
50319;SDS011;36226;53.464;9.852;2022-12-07T02:55:29;9.95;;;3.67;;
50319;SDS011;36226;53.464;9.852;2022-12-07T03:01:04;8.23;;;3.13;;
50319;SDS011;36226;53.464;9.852;2022-12-07T03:03:30;9.88;;;3.78;;
50319;SDS011;36226;53.464;9.852;2022-12-07T03:11:24;7.20;;;2.70;;
50319;SDS011;36226;53.464;9.852;2022-12-07T03:16:35;7.40;;;2.72;;
50319;SDS011;36226;53.464;9.852;2022-12-07T03:19:07;9.07;;;2.55;;
50319;SDS011;36226;53.464;9.852;2022-12-07T03:21:42;5.68;;;2.30;;
50319;SDS011;36226;53.464;9.852;2022-12-07T03:24:13;9.32;;;2.20;;
50319;SDS011;36226;53.464;9.852;2022-12-07T03:26:41;6.78;;;2.45;;
50319;SDS011;36226;53.464;9.852;2022-12-07T03:29:19;5.00;;;2.40;;
50319;SDS011;36226;53.464;9.852;2022-12-07T03:31:48;7.60;;;2.20;;
50319;SDS011;36226;53.464;9.852;2022-12-07T03:34:30;3.08;;;1.80;;
50319;SDS011;36226;53.464;9.852;2022-12-07T03:37:07;7.30;;;2.25;;
50319;SDS011;36226;53.464;9.852;2022-12-07T03:42:09;8.05;;;2.30;;
50319;SDS011;36226;53.464;9.852;2022-12-07T03:44:35;5.38;;;1.90;;
50319;SDS011;36226;53.464;9.852;2022-12-07T03:47:02;3.33;;;1.80;;
50319;SDS011;36226;53.464;9.852;2022-12-07T03:49:49;3.72;;;1.73;;
50319;SDS011;36226;53.464;9.852;2022-12-07T03:57:30;4.00;;;1.17;;
50319;SDS011;36226;53.464;9.852;2022-12-07T03:59:59;4.78;;;1.60;;
50319;SDS011;36226;53.464;9.852;2022-12-07T04:02:26;3.65;;;1.58;;
50319;SDS011;36226;53.464;9.852;2022-12-07T04:04:52;2.55;;;1.45;;
50319;SDS011;36226;53.464;9.852;2022-12-07T04:07:18;5.20;;;1.30;;
50319;SDS011;36226;53.464;9.852;2022-12-07T04:09:43;3.67;;;1.25;;
50319;SDS011;36226;53.464;9.852;2022-12-07T04:12:08;3.65;;;1.42;;
50319;SDS011;36226;53.464;9.852;2022-12-07T04:14:34;9.32;;;1.60;;
50319;SDS011;36226;53.464;9.852;2022-12-07T04:16:59;4.30;;;1.30;;
50319;SDS011;36226;53.464;9.852;2022-12-07T04:19:29;6.20;;;1.15;;
50319;SDS011;36226;53.464;9.852;2022-12-07T04:21:56;3.22;;;1.20;;
50319;SDS011;36226;53.464;9.852;2022-12-07T04:24:22;4.85;;;1.15;;
50319;SDS011;36226;53.464;9.852;2022-12-07T04:26:48;4.88;;;1.40;;
50319;SDS011;36226;53.464;9.852;2022-12-07T04:29:14;5.75;;;1.40;;
50319;SDS011;36226;53.464;9.852;2022-12-07T04:31:40;6.20;;;1.50;;
50319;SDS011;36226;53.464;9.852;2022-12-07T04:34:06;1.90;;;0.95;;
50319;SDS011;36226;53.464;9.852;2022-12-07T04:36:32;3.78;;;1.13;;
50319;SDS011;36226;53.464;9.852;2022-12-07T04:38:57;2.45;;;1.50;;
50319;SDS011;36226;53.464;9.852;2022-12-07T04:41:23;2.78;;;1.20;;
50319;SDS011;36226;53.464;9.852;2022-12-07T04:46:24;5.22;;;1.83;;
50319;SDS011;36226;53.464;9.852;2022-12-07T04:48:50;2.78;;;1.50;;
50319;SDS011;36226;53.464;9.852;2022-12-07T04:51:18;3.75;;;1.25;;
50319;SDS011;36226;53.464;9.852;2022-12-07T04:53:48;4.53;;;1.40;;
50319;SDS011;36226;53.464;9.852;2022-12-07T04:56:14;3.78;;;1.45;;
50319;SDS011;36226;53.464;9.852;2022-12-07T04:58:40;6.20;;;1.30;;
50319;SDS011;36226;53.464;9.852;2022-12-07T05:01:08;4.68;;;1.50;;
50319;SDS011;36226;53.464;9.852;2022-12-07T05:03:33;1.70;;;1.05;;
50319;SDS011;36226;53.464;9.852;2022-12-07T05:05:58;3.35;;;1.55;;
50319;SDS011;36226;53.464;9.852;2022-12-07T05:08:24;7.40;;;1.70;;
50319;SDS011;36226;53.464;9.852;2022-12-07T05:10:53;4.20;;;1.23;;
50319;SDS011;36226;53.464;9.852;2022-12-07T05:13:21;1.92;;;1.10;;
50319;SDS011;36226;53.464;9.852;2022-12-07T05:15:47;4.03;;;1.20;;
50319;SDS011;36226;53.464;9.852;2022-12-07T05:18:13;3.97;;;1.08;;
50319;SDS011;36226;53.464;9.852;2022-12-07T05:20:39;2.33;;;1.35;;
50319;SDS011;36226;53.464;9.852;2022-12-07T05:23:04;2.08;;;1.20;;
50319;SDS011;36226;53.464;9.852;2022-12-07T05:25:30;3.75;;;1.60;;
50319;SDS011;36226;53.464;9.852;2022-12-07T05:27:55;5.53;;;1.73;;
50319;SDS011;36226;53.464;9.852;2022-12-07T05:30:21;2.85;;;1.45;;
50319;SDS011;36226;53.464;9.852;2022-12-07T05:32:47;1.88;;;1.20;;
50319;SDS011;36226;53.464;9.852;2022-12-07T05:35:13;3.88;;;1.40;;
50319;SDS011;36226;53.464;9.852;2022-12-07T05:37:38;6.57;;;1.83;;
50319;SDS011;36226;53.464;9.852;2022-12-07T05:40:04;3.47;;;1.40;;
50319;SDS011;36226;53.464;9.852;2022-12-07T05:42:30;3.17;;;1.25;;
50319;SDS011;36226;53.464;9.852;2022-12-07T05:44:55;4.13;;;1.90;;
50319;SDS011;36226;53.464;9.852;2022-12-07T05:47:21;3.55;;;1.67;;
50319;SDS011;36226;53.464;9.852;2022-12-07T05:49:46;3.70;;;1.42;;
50319;SDS011;36226;53.464;9.852;2022-12-07T05:52:12;3.67;;;1.50;;
50319;SDS011;36226;53.464;9.852;2022-12-07T05:54:37;3.10;;;1.30;;
50319;SDS011;36226;53.464;9.852;2022-12-07T05:57:06;4.30;;;1.77;;
50319;SDS011;36226;53.464;9.852;2022-12-07T05:59:31;3.63;;;1.52;;
50319;SDS011;36226;53.464;9.852;2022-12-07T06:01:59;2.58;;;1.52;;
50319;SDS011;36226;53.464;9.852;2022-12-07T06:04:30;2.63;;;1.38;;
50319;SDS011;36226;53.464;9.852;2022-12-07T06:07:00;3.38;;;1.30;;
50319;SDS011;36226;53.464;9.852;2022-12-07T06:09:26;2.25;;;1.20;;
50319;SDS011;36226;53.464;9.852;2022-12-07T06:11:52;6.82;;;1.50;;
50319;SDS011;36226;53.464;9.852;2022-12-07T06:14:36;3.72;;;1.17;;
50319;SDS011;36226;53.464;9.852;2022-12-07T06:17:01;6.65;;;1.52;;
50319;SDS011;36226;53.464;9.852;2022-12-07T06:19:27;3.47;;;1.25;;
50319;SDS011;36226;53.464;9.852;2022-12-07T06:21:52;4.28;;;1.25;;
50319;SDS011;36226;53.464;9.852;2022-12-07T06:24:18;5.97;;;1.48;;
50319;SDS011;36226;53.464;9.852;2022-12-07T06:26:44;2.15;;;1.10;;
50319;SDS011;36226;53.464;9.852;2022-12-07T06:29:10;4.10;;;1.20;;
50319;SDS011;36226;53.464;9.852;2022-12-07T06:31:36;5.70;;;1.50;;
50319;SDS011;36226;53.464;9.852;2022-12-07T06:34:03;2.08;;;0.98;;
50319;SDS011;36226;53.464;9.852;2022-12-07T06:36:30;4.57;;;1.35;;
50319;SDS011;36226;53.464;9.852;2022-12-07T06:38:55;8.10;;;2.05;;
50319;SDS011;36226;53.464;9.852;2022-12-07T06:41:21;3.85;;;1.42;;
50319;SDS011;36226;53.464;9.852;2022-12-07T06:43:47;4.65;;;1.40;;
50319;SDS011;36226;53.464;9.852;2022-12-07T06:46:13;2.83;;;1.40;;
50319;SDS011;36226;53.464;9.852;2022-12-07T06:48:39;3.42;;;1.35;;
50319;SDS011;36226;53.464;9.852;2022-12-07T06:51:04;3.05;;;1.35;;
50319;SDS011;36226;53.464;9.852;2022-12-07T06:53:30;4.25;;;1.00;;
50319;SDS011;36226;53.464;9.852;2022-12-07T06:55:55;4.97;;;1.30;;
50319;SDS011;36226;53.464;9.852;2022-12-07T06:58:20;5.18;;;1.30;;
50319;SDS011;36226;53.464;9.852;2022-12-07T07:00:47;4.05;;;1.30;;
50319;SDS011;36226;53.464;9.852;2022-12-07T07:03:13;2.80;;;1.48;;
50319;SDS011;36226;53.464;9.852;2022-12-07T07:05:38;3.22;;;0.93;;
50319;SDS011;36226;53.464;9.852;2022-12-07T07:08:04;2.90;;;1.10;;
50319;SDS011;36226;53.464;9.852;2022-12-07T07:10:29;2.67;;;1.20;;
50319;SDS011;36226;53.464;9.852;2022-12-07T07:12:55;4.22;;;1.17;;
50319;SDS011;36226;53.464;9.852;2022-12-07T07:15:20;2.70;;;1.20;;
50319;SDS011;36226;53.464;9.852;2022-12-07T07:17:46;2.60;;;1.10;;
50319;SDS011;36226;53.464;9.852;2022-12-07T07:20:11;3.55;;;1.10;;
50319;SDS011;36226;53.464;9.852;2022-12-07T07:22:37;4.05;;;1.30;;
50319;SDS011;36226;53.464;9.852;2022-12-07T07:25:02;3.22;;;1.30;;
50319;SDS011;36226;53.464;9.852;2022-12-07T07:27:28;4.00;;;1.08;;
50319;SDS011;36226;53.464;9.852;2022-12-07T07:29:53;2.83;;;1.15;;
50319;SDS011;36226;53.464;9.852;2022-12-07T07:32:18;3.67;;;0.95;;
50319;SDS011;36226;53.464;9.852;2022-12-07T07:34:44;3.20;;;1.00;;
50319;SDS011;36226;53.464;9.852;2022-12-07T07:37:09;2.58;;;1.20;;
50319;SDS011;36226;53.464;9.852;2022-12-07T07:39:37;4.07;;;1.10;;
50319;SDS011;36226;53.464;9.852;2022-12-07T07:42:03;4.07;;;1.10;;
50319;SDS011;36226;53.464;9.852;2022-12-07T07:44:28;2.70;;;1.20;;
50319;SDS011;36226;53.464;9.852;2022-12-07T07:46:54;3.08;;;0.90;;
50319;SDS011;36226;53.464;9.852;2022-12-07T07:49:19;2.95;;;1.45;;
50319;SDS011;36226;53.464;9.852;2022-12-07T07:51:44;3.35;;;1.30;;
50319;SDS011;36226;53.464;9.852;2022-12-07T07:54:10;2.90;;;0.98;;
50319;SDS011;36226;53.464;9.852;2022-12-07T07:56:35;5.63;;;1.27;;
50319;SDS011;36226;53.464;9.852;2022-12-07T07:59:00;3.00;;;1.20;;
50319;SDS011;36226;53.464;9.852;2022-12-07T08:01:26;5.28;;;1.05;;
50319;SDS011;36226;53.464;9.852;2022-12-07T08:03:51;7.57;;;1.13;;
50319;SDS011;36226;53.464;9.852;2022-12-07T08:06:16;3.08;;;0.80;;
50319;SDS011;36226;53.464;9.852;2022-12-07T08:08:42;1.52;;;0.88;;
50319;SDS011;36226;53.464;9.852;2022-12-07T08:11:08;4.22;;;1.25;;
50319;SDS011;36226;53.464;9.852;2022-12-07T08:13:34;4.78;;;1.13;;
50319;SDS011;36226;53.464;9.852;2022-12-07T08:16:03;3.55;;;0.88;;
50319;SDS011;36226;53.464;9.852;2022-12-07T08:18:29;2.88;;;0.90;;
50319;SDS011;36226;53.464;9.852;2022-12-07T08:20:58;2.70;;;1.10;;
50319;SDS011;36226;53.464;9.852;2022-12-07T08:23:25;3.10;;;1.30;;
50319;SDS011;36226;53.464;9.852;2022-12-07T08:25:51;4.30;;;1.45;;
50319;SDS011;36226;53.464;9.852;2022-12-07T08:28:16;2.55;;;0.90;;
50319;SDS011;36226;53.464;9.852;2022-12-07T08:30:41;3.63;;;1.27;;
50319;SDS011;36226;53.464;9.852;2022-12-07T08:33:07;6.50;;;1.25;;
50319;SDS011;36226;53.464;9.852;2022-12-07T08:35:34;2.97;;;1.77;;
50319;SDS011;36226;53.464;9.852;2022-12-07T08:37:59;7.55;;;1.23;;
50319;SDS011;36226;53.464;9.852;2022-12-07T08:40:27;4.72;;;1.65;;
50319;SDS011;36226;53.464;9.852;2022-12-07T08:42:52;6.20;;;1.33;;
50319;SDS011;36226;53.464;9.852;2022-12-07T08:45:18;5.00;;;1.10;;
50319;SDS011;36226;53.464;9.852;2022-12-07T08:47:52;4.28;;;1.48;;
50319;SDS011;36226;53.464;9.852;2022-12-07T08:50:37;4.72;;;1.63;;
50319;SDS011;36226;53.464;9.852;2022-12-07T08:53:02;5.50;;;1.27;;
50319;SDS011;36226;53.464;9.852;2022-12-07T08:55:29;5.72;;;1.30;;
50319;SDS011;36226;53.464;9.852;2022-12-07T08:57:55;7.60;;;1.88;;
50319;SDS011;36226;53.464;9.852;2022-12-07T09:00:22;4.95;;;1.25;;
50319;SDS011;36226;53.464;9.852;2022-12-07T09:02:48;6.07;;;1.75;;
50319;SDS011;36226;53.464;9.852;2022-12-07T09:05:13;5.72;;;1.20;;
50319;SDS011;36226;53.464;9.852;2022-12-07T09:07:40;4.43;;;1.10;;
50319;SDS011;36226;53.464;9.852;2022-12-07T09:10:06;4.43;;;2.38;;
50319;SDS011;36226;53.464;9.852;2022-12-07T09:12:32;3.70;;;1.33;;
50319;SDS011;36226;53.464;9.852;2022-12-07T09:14:57;5.85;;;1.20;;
50319;SDS011;36226;53.464;9.852;2022-12-07T09:17:23;4.22;;;1.00;;
50319;SDS011;36226;53.464;9.852;2022-12-07T09:19:48;7.15;;;1.50;;
50319;SDS011;36226;53.464;9.852;2022-12-07T09:22:13;4.70;;;1.25;;
50319;SDS011;36226;53.464;9.852;2022-12-07T09:24:39;7.20;;;1.30;;
50319;SDS011;36226;53.464;9.852;2022-12-07T09:27:05;3.53;;;1.20;;
50319;SDS011;36226;53.464;9.852;2022-12-07T09:29:30;8.43;;;1.27;;
50319;SDS011;36226;53.464;9.852;2022-12-07T09:31:55;3.70;;;1.00;;
50319;SDS011;36226;53.464;9.852;2022-12-07T09:34:21;7.38;;;1.20;;
50319;SDS011;36226;53.464;9.852;2022-12-07T09:36:46;2.75;;;0.80;;
50319;SDS011;36226;53.464;9.852;2022-12-07T09:39:12;6.88;;;0.80;;
50319;SDS011;36226;53.464;9.852;2022-12-07T09:41:38;3.35;;;0.90;;
50319;SDS011;36226;53.464;9.852;2022-12-07T09:44:09;3.80;;;0.90;;
50319;SDS011;36226;53.464;9.852;2022-12-07T09:46:36;3.80;;;0.73;;
50319;SDS011;36226;53.464;9.852;2022-12-07T09:49:04;7.38;;;2.15;;
50319;SDS011;36226;53.464;9.852;2022-12-07T09:51:30;15.10;;;5.75;;
50319;SDS011;36226;53.464;9.852;2022-12-07T09:53:56;11.57;;;5.13;;
50319;SDS011;36226;53.464;9.852;2022-12-07T09:56:23;8.07;;;2.67;;
50319;SDS011;36226;53.464;9.852;2022-12-07T09:58:49;9.77;;;5.22;;
50319;SDS011;36226;53.464;9.852;2022-12-07T10:01:16;7.05;;;3.83;;
50319;SDS011;36226;53.464;9.852;2022-12-07T10:03:53;3.72;;;0.90;;
50319;SDS011;36226;53.464;9.852;2022-12-07T10:06:19;5.43;;;1.20;;
50319;SDS011;36226;53.464;9.852;2022-12-07T10:08:45;3.67;;;2.53;;
50319;SDS011;36226;53.464;9.852;2022-12-07T10:11:11;8.35;;;2.28;;
50319;SDS011;36226;53.464;9.852;2022-12-07T10:13:40;3.90;;;0.98;;
50319;SDS011;36226;53.464;9.852;2022-12-07T10:18:49;7.32;;;3.10;;
50319;SDS011;36226;53.464;9.852;2022-12-07T10:21:16;4.80;;;1.77;;
50319;SDS011;36226;53.464;9.852;2022-12-07T10:24:05;3.60;;;0.93;;
50319;SDS011;36226;53.464;9.852;2022-12-07T10:31:39;5.80;;;1.40;;
50319;SDS011;36226;53.464;9.852;2022-12-07T10:34:12;8.60;;;1.50;;
50319;SDS011;36226;53.464;9.852;2022-12-07T10:36:50;7.60;;;2.45;;
50319;SDS011;36226;53.464;9.852;2022-12-07T10:39:20;2.40;;;1.15;;
50319;SDS011;36226;53.464;9.852;2022-12-07T10:42:00;2.28;;;0.80;;
50319;SDS011;36226;53.464;9.852;2022-12-07T10:44:28;5.63;;;1.83;;
50319;SDS011;36226;53.464;9.852;2022-12-07T11:00:48;4.22;;;0.95;;
50319;SDS011;36226;53.464;9.852;2022-12-07T11:05:54;3.00;;;1.23;;
50319;SDS011;36226;53.464;9.852;2022-12-07T11:08:52;4.35;;;0.90;;
50319;SDS011;36226;53.464;9.852;2022-12-07T11:20:43;7.25;;;1.75;;
50319;SDS011;36226;53.464;9.852;2022-12-07T11:23:29;3.33;;;0.68;;
50319;SDS011;36226;53.464;9.852;2022-12-07T11:31:55;7.35;;;1.30;;
50319;SDS011;36226;53.464;9.852;2022-12-07T11:34:50;8.25;;;1.38;;
50319;SDS011;36226;53.464;9.852;2022-12-07T11:37:25;6.15;;;1.10;;
50319;SDS011;36226;53.464;9.852;2022-12-07T11:39:56;3.45;;;0.85;;
50319;SDS011;36226;53.464;9.852;2022-12-07T11:42:29;5.15;;;1.33;;
50319;SDS011;36226;53.464;9.852;2022-12-07T12:03:48;7.03;;;0.80;;
50319;SDS011;36226;53.464;9.852;2022-12-07T12:06:16;5.57;;;0.90;;
50319;SDS011;36226;53.464;9.852;2022-12-07T12:14:46;4.28;;;0.93;;
50319;SDS011;36226;53.464;9.852;2022-12-07T12:17:17;6.57;;;1.08;;
50319;SDS011;36226;53.464;9.852;2022-12-07T12:22:58;6.45;;;1.00;;
50319;SDS011;36226;53.464;9.852;2022-12-07T12:27:53;7.75;;;1.58;;
50319;SDS011;36226;53.464;9.852;2022-12-07T12:32:49;8.88;;;1.58;;
50319;SDS011;36226;53.464;9.852;2022-12-07T12:35:34;5.97;;;1.40;;
50319;SDS011;36226;53.464;9.852;2022-12-07T12:40:49;4.97;;;1.23;;
50319;SDS011;36226;53.464;9.852;2022-12-07T12:51:49;3.22;;;1.10;;
50319;SDS011;36226;53.464;9.852;2022-12-07T12:54:26;9.85;;;2.10;;
50319;SDS011;36226;53.464;9.852;2022-12-07T12:57:15;7.72;;;1.40;;
50319;SDS011;36226;53.464;9.852;2022-12-07T13:15:50;6.18;;;2.10;;
50319;SDS011;36226;53.464;9.852;2022-12-07T13:23:21;3.72;;;1.00;;
50319;SDS011;36226;53.464;9.852;2022-12-07T13:25:56;4.20;;;0.90;;
50319;SDS011;36226;53.464;9.852;2022-12-07T13:28:43;7.22;;;1.20;;
50319;SDS011;36226;53.464;9.852;2022-12-07T13:37:01;2.03;;;0.63;;
50319;SDS011;36226;53.464;9.852;2022-12-07T13:39:33;9.95;;;4.55;;
50319;SDS011;36226;53.464;9.852;2022-12-07T13:42:06;8.45;;;3.15;;
50319;SDS011;36226;53.464;9.852;2022-12-07T13:44:34;7.75;;;2.22;;
50319;SDS011;36226;53.464;9.852;2022-12-07T13:49:30;11.02;;;3.20;;
50319;SDS011;36226;53.464;9.852;2022-12-07T13:52:16;11.10;;;2.95;;
50319;SDS011;36226;53.464;9.852;2022-12-07T13:54:48;5.72;;;2.00;;
50319;SDS011;36226;53.464;9.852;2022-12-07T13:57:15;5.25;;;1.05;;
50319;SDS011;36226;53.464;9.852;2022-12-07T13:59:41;6.38;;;2.38;;
50319;SDS011;36226;53.464;9.852;2022-12-07T14:02:26;8.02;;;3.40;;
50319;SDS011;36226;53.464;9.852;2022-12-07T14:05:07;8.35;;;2.88;;
50319;SDS011;36226;53.464;9.852;2022-12-07T14:07:35;11.07;;;3.30;;
50319;SDS011;36226;53.464;9.852;2022-12-07T14:10:03;12.68;;;4.18;;
50319;SDS011;36226;53.464;9.852;2022-12-07T14:12:30;7.70;;;1.30;;
50319;SDS011;36226;53.464;9.852;2022-12-07T14:14:57;7.45;;;1.70;;
50319;SDS011;36226;53.464;9.852;2022-12-07T14:17:24;7.30;;;2.50;;
50319;SDS011;36226;53.464;9.852;2022-12-07T14:19:51;6.50;;;2.28;;
50319;SDS011;36226;53.464;9.852;2022-12-07T14:24:51;6.38;;;2.63;;
50319;SDS011;36226;53.464;9.852;2022-12-07T14:27:24;5.85;;;2.30;;
50319;SDS011;36226;53.464;9.852;2022-12-07T14:29:55;9.70;;;4.50;;
50319;SDS011;36226;53.464;9.852;2022-12-07T14:32:25;7.43;;;1.73;;
50319;SDS011;36226;53.464;9.852;2022-12-07T14:35:09;4.68;;;1.15;;
50319;SDS011;36226;53.464;9.852;2022-12-07T14:37:36;4.03;;;1.95;;
50319;SDS011;36226;53.464;9.852;2022-12-07T14:40:02;13.35;;;4.40;;
50319;SDS011;36226;53.464;9.852;2022-12-07T14:42:28;6.88;;;2.22;;
50319;SDS011;36226;53.464;9.852;2022-12-07T14:44:55;13.40;;;4.40;;
50319;SDS011;36226;53.464;9.852;2022-12-07T14:47:21;9.43;;;2.70;;
50319;SDS011;36226;53.464;9.852;2022-12-07T14:49:47;8.93;;;1.92;;
50319;SDS011;36226;53.464;9.852;2022-12-07T14:52:15;9.35;;;4.07;;
50319;SDS011;36226;53.464;9.852;2022-12-07T14:54:42;7.97;;;3.25;;
50319;SDS011;36226;53.464;9.852;2022-12-07T14:57:09;9.77;;;4.05;;
50319;SDS011;36226;53.464;9.852;2022-12-07T14:59:35;11.35;;;4.07;;
50319;SDS011;36226;53.464;9.852;2022-12-07T15:02:00;11.07;;;4.28;;
50319;SDS011;36226;53.464;9.852;2022-12-07T15:04:26;13.15;;;3.83;;
50319;SDS011;36226;53.464;9.852;2022-12-07T15:06:58;11.80;;;4.50;;
50319;SDS011;36226;53.464;9.852;2022-12-07T15:09:24;10.82;;;4.95;;
50319;SDS011;36226;53.464;9.852;2022-12-07T15:11:50;11.40;;;4.32;;
50319;SDS011;36226;53.464;9.852;2022-12-07T15:14:15;10.27;;;4.03;;
50319;SDS011;36226;53.464;9.852;2022-12-07T15:16:41;9.02;;;3.38;;
50319;SDS011;36226;53.464;9.852;2022-12-07T15:19:11;8.60;;;2.88;;
50319;SDS011;36226;53.464;9.852;2022-12-07T15:21:38;5.93;;;2.53;;
50319;SDS011;36226;53.464;9.852;2022-12-07T15:24:08;4.22;;;1.95;;
50319;SDS011;36226;53.464;9.852;2022-12-07T15:26:34;2.50;;;1.50;;
50319;SDS011;36226;53.464;9.852;2022-12-07T15:29:00;8.23;;;1.60;;
50319;SDS011;36226;53.464;9.852;2022-12-07T15:31:25;4.70;;;1.50;;
50319;SDS011;36226;53.464;9.852;2022-12-07T15:33:51;6.38;;;1.50;;
50319;SDS011;36226;53.464;9.852;2022-12-07T15:36:23;5.50;;;1.60;;
50319;SDS011;36226;53.464;9.852;2022-12-07T15:38:51;5.03;;;1.80;;
50319;SDS011;36226;53.464;9.852;2022-12-07T15:41:16;4.55;;;1.60;;
50319;SDS011;36226;53.464;9.852;2022-12-07T15:43:42;4.43;;;1.88;;
50319;SDS011;36226;53.464;9.852;2022-12-07T15:46:35;3.05;;;1.80;;
50319;SDS011;36226;53.464;9.852;2022-12-07T15:49:02;6.53;;;1.40;;
50319;SDS011;36226;53.464;9.852;2022-12-07T15:51:31;6.03;;;1.60;;
50319;SDS011;36226;53.464;9.852;2022-12-07T15:53:59;3.40;;;1.60;;
50319;SDS011;36226;53.464;9.852;2022-12-07T15:56:27;4.18;;;1.33;;
50319;SDS011;36226;53.464;9.852;2022-12-07T15:59:04;4.03;;;1.40;;
50319;SDS011;36226;53.464;9.852;2022-12-07T16:01:30;4.72;;;1.30;;
50319;SDS011;36226;53.464;9.852;2022-12-07T16:03:56;4.68;;;1.50;;
50319;SDS011;36226;53.464;9.852;2022-12-07T16:06:22;4.85;;;1.60;;
50319;SDS011;36226;53.464;9.852;2022-12-07T16:08:47;5.20;;;1.58;;
50319;SDS011;36226;53.464;9.852;2022-12-07T16:11:13;4.13;;;2.33;;
50319;SDS011;36226;53.464;9.852;2022-12-07T16:13:39;8.88;;;2.00;;
50319;SDS011;36226;53.464;9.852;2022-12-07T16:16:10;5.57;;;2.03;;
50319;SDS011;36226;53.464;9.852;2022-12-07T16:18:38;2.67;;;1.58;;
50319;SDS011;36226;53.464;9.852;2022-12-07T16:21:03;5.03;;;1.80;;
50319;SDS011;36226;53.464;9.852;2022-12-07T16:23:29;5.57;;;2.30;;
50319;SDS011;36226;53.464;9.852;2022-12-07T16:26:03;6.72;;;2.30;;
50319;SDS011;36226;53.464;9.852;2022-12-07T16:28:49;6.90;;;2.10;;
50319;SDS011;36226;53.464;9.852;2022-12-07T16:31:16;4.10;;;1.83;;
50319;SDS011;36226;53.464;9.852;2022-12-07T16:33:43;3.67;;;1.77;;
50319;SDS011;36226;53.464;9.852;2022-12-07T16:36:09;5.22;;;1.50;;
50319;SDS011;36226;53.464;9.852;2022-12-07T16:38:35;3.85;;;1.83;;
50319;SDS011;36226;53.464;9.852;2022-12-07T16:41:01;9.65;;;3.72;;
50319;SDS011;36226;53.464;9.852;2022-12-07T16:43:26;8.15;;;3.78;;
50319;SDS011;36226;53.464;9.852;2022-12-07T16:45:52;11.13;;;4.50;;
50319;SDS011;36226;53.464;9.852;2022-12-07T16:48:17;10.90;;;4.70;;
50319;SDS011;36226;53.464;9.852;2022-12-07T16:50:43;12.15;;;4.78;;
50319;SDS011;36226;53.464;9.852;2022-12-07T16:53:09;7.43;;;3.35;;
50319;SDS011;36226;53.464;9.852;2022-12-07T16:55:35;5.88;;;3.13;;
50319;SDS011;36226;53.464;9.852;2022-12-07T16:58:04;9.13;;;2.95;;
50319;SDS011;36226;53.464;9.852;2022-12-07T17:00:30;6.35;;;2.53;;
50319;SDS011;36226;53.464;9.852;2022-12-07T17:02:56;5.93;;;2.70;;
50319;SDS011;36226;53.464;9.852;2022-12-07T17:05:21;7.45;;;2.95;;
50319;SDS011;36226;53.464;9.852;2022-12-07T17:07:46;11.98;;;3.17;;
50319;SDS011;36226;53.464;9.852;2022-12-07T17:10:12;6.32;;;3.20;;
50319;SDS011;36226;53.464;9.852;2022-12-07T17:12:37;6.68;;;3.40;;
50319;SDS011;36226;53.464;9.852;2022-12-07T17:15:03;6.45;;;3.50;;
50319;SDS011;36226;53.464;9.852;2022-12-07T17:17:57;8.93;;;4.25;;
50319;SDS011;36226;53.464;9.852;2022-12-07T17:20:26;8.25;;;3.95;;
50319;SDS011;36226;53.464;9.852;2022-12-07T17:23:05;6.45;;;3.38;;
50319;SDS011;36226;53.464;9.852;2022-12-07T17:25:30;7.53;;;3.88;;
50319;SDS011;36226;53.464;9.852;2022-12-07T17:27:56;7.63;;;3.90;;
50319;SDS011;36226;53.464;9.852;2022-12-07T17:30:21;11.40;;;5.30;;
50319;SDS011;36226;53.464;9.852;2022-12-07T17:32:47;12.75;;;7.05;;
50319;SDS011;36226;53.464;9.852;2022-12-07T17:35:12;12.07;;;6.82;;
50319;SDS011;36226;53.464;9.852;2022-12-07T17:37:38;9.55;;;6.70;;
50319;SDS011;36226;53.464;9.852;2022-12-07T17:40:04;12.40;;;6.68;;
50319;SDS011;36226;53.464;9.852;2022-12-07T17:42:33;10.25;;;6.68;;
50319;SDS011;36226;53.464;9.852;2022-12-07T17:45:05;10.88;;;6.85;;
50319;SDS011;36226;53.464;9.852;2022-12-07T17:47:33;12.48;;;7.03;;
50319;SDS011;36226;53.464;9.852;2022-12-07T17:49:59;14.82;;;7.53;;
50319;SDS011;36226;53.464;9.852;2022-12-07T17:52:24;10.68;;;6.50;;
50319;SDS011;36226;53.464;9.852;2022-12-07T17:55:11;11.38;;;7.07;;
50319;SDS011;36226;53.464;9.852;2022-12-07T17:57:39;12.52;;;7.18;;
50319;SDS011;36226;53.464;9.852;2022-12-07T18:00:11;13.63;;;7.03;;
50319;SDS011;36226;53.464;9.852;2022-12-07T18:02:37;12.77;;;5.40;;
50319;SDS011;36226;53.464;9.852;2022-12-07T18:05:03;8.35;;;5.70;;
50319;SDS011;36226;53.464;9.852;2022-12-07T18:07:29;9.32;;;4.78;;
50319;SDS011;36226;53.464;9.852;2022-12-07T18:09:54;7.85;;;5.03;;
50319;SDS011;36226;53.464;9.852;2022-12-07T18:12:19;7.72;;;3.80;;
50319;SDS011;36226;53.464;9.852;2022-12-07T18:14:45;5.88;;;3.53;;
50319;SDS011;36226;53.464;9.852;2022-12-07T18:17:15;6.28;;;3.00;;
50319;SDS011;36226;53.464;9.852;2022-12-07T18:19:41;11.07;;;3.15;;
50319;SDS011;36226;53.464;9.852;2022-12-07T18:22:06;7.43;;;2.80;;
50319;SDS011;36226;53.464;9.852;2022-12-07T18:24:31;3.58;;;2.78;;
50319;SDS011;36226;53.464;9.852;2022-12-07T18:26:57;7.82;;;3.90;;
50319;SDS011;36226;53.464;9.852;2022-12-07T18:29:22;10.30;;;4.47;;
50319;SDS011;36226;53.464;9.852;2022-12-07T18:31:48;9.90;;;6.40;;
50319;SDS011;36226;53.464;9.852;2022-12-07T18:34:14;14.63;;;8.32;;
50319;SDS011;36226;53.464;9.852;2022-12-07T18:36:42;18.05;;;10.63;;
50319;SDS011;36226;53.464;9.852;2022-12-07T18:39:12;14.80;;;10.10;;
50319;SDS011;36226;53.464;9.852;2022-12-07T18:41:38;13.45;;;8.57;;
50319;SDS011;36226;53.464;9.852;2022-12-07T18:44:04;13.35;;;7.13;;
50319;SDS011;36226;53.464;9.852;2022-12-07T18:46:30;9.50;;;6.13;;
50319;SDS011;36226;53.464;9.852;2022-12-07T18:48:56;9.50;;;6.03;;
50319;SDS011;36226;53.464;9.852;2022-12-07T18:51:21;8.68;;;5.55;;
50319;SDS011;36226;53.464;9.852;2022-12-07T18:53:47;8.88;;;5.80;;
50319;SDS011;36226;53.464;9.852;2022-12-07T18:56:17;9.77;;;5.32;;
50319;SDS011;36226;53.464;9.852;2022-12-07T18:58:47;8.95;;;5.68;;
50319;SDS011;36226;53.464;9.852;2022-12-07T19:01:39;9.25;;;5.60;;
50319;SDS011;36226;53.464;9.852;2022-12-07T19:04:05;8.88;;;5.03;;